Terminal Aerodrome Forecast
Issued by NWS

Current Version | Previous Version | Text Only | Print | Product List | Glossary On
Versions: 1 2 3 4 5 6 7 8 9 10 11 12 13 14 15 16 17 18 19 20
000
FTUS43 KDTX 212320
TAFPTK
TAF
KPTK 212320Z 2200/2224 03007KT P6SM SCT025 OVC150
     FM220100 05005KT P6SM BKN200
     FM221400 05010KT P6SM OVC150
     FM221900 05010KT P6SM OVC100=

USA.gov is the U.S. government's official web portal to all federal, state and local government web resources and services.